Time;durP1;ratioP1;P1;durP2;ratioP2;P2;SDS_P1;SDS_P2;PMS_P1;PMS_P2;Temp;Humidity;BMP_temperature;BMP_pressure;BME280_temperature;BME280_humidity;BME280_pressure;Samples;Min_cycle;Max_cycle;Signal;HPM_P1;HPM_P2
2021/03/26 06:10:23;;;;;;;17.73;9.70;;;;;;;;;;6214462;23;20087;-91
2021/03/26 06:12:52;;;;;;;20.42;11.68;;;;;;;;;;6194367;23;20013;-92
2021/03/26 06:15:22;;;;;;;16.17;10.57;;;;;;;;;;6185890;23;20020;-92
2021/03/26 06:18:06;;;;;;;22.33;11.13;;;;;;;;;;6184705;23;20012;-91
2021/03/26 06:20:52;;;;;;;19.02;10.23;;;;;;;;;;6184927;23;20071;-92
2021/03/26 06:23:37;;;;;;;20.38;13.45;;;;;;;;;;6189011;23;20457;-93
2021/03/26 06:26:22;;;;;;;22.25;10.98;;;;;;;;;;6185048;23;20039;-91
2021/03/26 06:28:52;;;;;;;19.30;9.98;;;;;;;;;;6185367;23;20008;-91
2021/03/26 06:31:31;;;;;;;19.48;9.77;;;;;;;;;;6185148;23;20015;-91
2021/03/26 06:34:01;;;;;;;18.73;10.90;;;;;;;;;;6189835;23;20009;-93
2021/03/26 06:36:57;;;;;;;15.52;10.50;;;;;;;;;;6184427;23;20434;-92
2021/03/26 06:42:28;;;;;;;17.08;10.38;;;;;;;;;;6182364;23;20466;-92
2021/03/26 06:45:16;;;;;;;19.90;10.60;;;;;;;;;;6180488;23;20498;-91
2021/03/26 06:47:43;;;;;;;23.38;11.23;;;;;;;;;;6151198;23;20523;-91
2021/03/26 06:50:43;;;;;;;21.15;11.40;;;;;;;;;;6178716;23;20032;-90
2021/03/26 06:53:16;;;;;;;17.80;10.93;;;;;;;;;;6154949;23;20001;-90
2021/03/26 06:55:57;;;;;;;19.83;10.90;;;;;;;;;;6167024;23;20016;-91
2021/03/26 06:58:37;;;;;;;21.45;10.73;;;;;;;;;;6154201;23;20009;-91
2021/03/26 07:01:14;;;;;;;22.15;11.38;;;;;;;;;;6153618;23;20079;-91
2021/03/26 07:04:01;;;;;;;20.40;12.52;;;;;;;;;;6182386;23;20005;-92
2021/03/26 07:06:53;;;;;;;17.70;11.10;;;;;;;;;;6109504;23;20009;-92
2021/03/26 07:09:38;;;;;;;17.77;11.35;;;;;;;;;;6182561;23;20013;-92
2021/03/26 07:12:25;;;;;;;18.17;11.35;;;;;;;;;;6156228;23;20009;-93
2021/03/26 07:15:10;;;;;;;17.88;10.90;;;;;;;;;;6154907;23;20093;-92
2021/03/26 07:17:55;;;;;;;21.83;11.25;;;;;;;;;;6157914;23;20009;-92
2021/03/26 07:20:21;;;;;;;24.30;12.60;;;;;;;;;;6157456;23;20776;-93
2021/03/26 07:22:56;;;;;;;30.40;13.40;;;;;;;;;;6182224;23;20016;-93
2021/03/26 07:25:41;;;;;;;24.40;12.65;;;;;;;;;;6182547;23;20032;-93
2021/03/26 07:28:29;;;;;;;17.58;13.00;;;;;;;;;;6157379;23;20013;-92
2021/03/26 07:31:06;;;;;;;26.42;13.82;;;;;;;;;;6179399;23;20005;-92
2021/03/26 07:33:34;;;;;;;24.15;13.63;;;;;;;;;;6154264;23;20013;-93
2021/03/26 07:36:27;;;;;;;24.02;14.10;;;;;;;;;;6178264;23;20012;-93
2021/03/26 07:39:12;;;;;;;27.10;18.10;;;;;;;;;;6149279;23;20363;-93
2021/03/26 07:41:51;;;;;;;25.90;17.20;;;;;;;;;;6153768;23;20039;-93
2021/03/26 07:44:30;;;;;;;27.85;19.40;;;;;;;;;;6154557;23;20020;-93
2021/03/26 07:47:28;;;;;;;30.67;18.40;;;;;;;;;;6162506;23;20009;-93
2021/03/26 07:50:03;;;;;;;39.80;20.02;;;;;;;;;;6050880;23;20013;-93
2021/03/26 07:52:39;;;;;;;36.13;19.70;;;;;;;;;;6153317;23;20113;-93
2021/03/26 07:55:08;;;;;;;32.50;19.88;;;;;;;;;;6154063;23;20020;-93
2021/03/26 07:57:40;;;;;;;28.83;19.73;;;;;;;;;;6155793;23;20088;-93
2021/03/26 08:00:07;;;;;;;32.33;21.17;;;;;;;;;;6177087;23;20104;-93
2021/03/26 08:02:33;;;;;;;41.50;22.85;;;;;;;;;;6177907;23;20454;-92
2021/03/26 08:05:06;;;;;;;40.00;20.77;;;;;;;;;;6151918;23;20396;-92
2021/03/26 08:07:57;;;;;;;32.47;20.88;;;;;;;;;;6155598;23;20013;-92
2021/03/26 08:10:23;;;;;;;32.58;20.05;;;;;;;;;;6154664;23;20077;-95
2021/03/26 08:12:49;;;;;;;30.58;18.48;;;;;;;;;;6152148;23;20313;-91
2021/03/26 08:15:25;;;;;;;37.53;19.15;;;;;;;;;;6153030;23;20013;-94
2021/03/26 08:17:52;;;;;;;30.65;18.60;;;;;;;;;;6152217;23;20016;-95
2021/03/26 08:20:30;;;;;;;32.10;17.83;;;;;;;;;;6154478;23;20101;-94
2021/03/26 08:23:16;;;;;;;32.03;18.35;;;;;;;;;;6151900;23;20743;-93
2021/03/26 08:25:42;;;;;;;34.50;18.40;;;;;;;;;;6172324;23;20378;-93
2021/03/26 08:28:27;;;;;;;31.95;18.02;;;;;;;;;;6156012;23;20013;-95
2021/03/26 08:30:54;;;;;;;34.28;19.15;;;;;;;;;;6155081;23;20009;-93
2021/03/26 08:33:29;;;;;;;36.40;17.65;;;;;;;;;;6155520;23;20012;-96
2021/03/26 08:36:12;;;;;;;31.35;18.38;;;;;;;;;;6155269;23;20092;-92
2021/03/26 08:38:57;;;;;;;32.25;17.08;;;;;;;;;;6156646;23;20024;-92
2021/03/26 08:41:27;;;;;;;34.10;17.40;;;;;;;;;;6155518;23;20016;-92
2021/03/26 08:43:55;;;;;;;28.27;17.05;;;;;;;;;;6154842;23;20013;-93
2021/03/26 08:46:21;;;;;;;33.45;16.35;;;;;;;;;;6155414;23;20064;-92
2021/03/26 08:48:56;;;;;;;34.03;16.17;;;;;;;;;;6178841;23;20438;-93
2021/03/26 08:51:26;;;;;;;32.67;18.30;;;;;;;;;;6155800;23;20009;-94
2021/03/26 08:54:11;;;;;;;44.25;18.02;;;;;;;;;;6154006;23;20013;-92
2021/03/26 08:56:59;;;;;;;32.47;16.58;;;;;;;;;;6155005;23;20017;-92
2021/03/26 08:59:29;;;;;;;23.40;12.93;;;;;;;;;;6155566;23;20009;-92
2021/03/26 09:01:55;;;;;;;27.73;13.98;;;;;;;;;;6154585;23;20013;-91
2021/03/26 09:04:30;;;;;;;19.73;12.18;;;;;;;;;;6155905;23;20077;-91
2021/03/26 09:07:15;;;;;;;22.73;11.10;;;;;;;;;;6152500;23;20084;-94
2021/03/26 09:09:47;;;;;;;16.48;9.27;;;;;;;;;;6151729;23;20033;-93
2021/03/26 09:12:14;;;;;;;16.40;9.45;;;;;;;;;;6155148;23;20083;-95
2021/03/26 09:14:58;;;;;;;16.65;9.75;;;;;;;;;;6153251;23;20006;-91
2021/03/26 09:17:32;;;;;;;16.23;9.23;;;;;;;;;;6157468;23;20013;-94
2021/03/26 09:20:02;;;;;;;18.65;9.23;;;;;;;;;;6157331;23;20013;-96
2021/03/26 09:22:46;;;;;;;16.48;8.50;;;;;;;;;;6183749;23;20005;-93
2021/03/26 09:25:19;;;;;;;14.07;7.82;;;;;;;;;;6156065;23;20017;-93
2021/03/26 09:27:48;;;;;;;12.70;7.97;;;;;;;;;;6158944;23;20016;-92
2021/03/26 09:30:22;;;;;;;12.52;7.57;;;;;;;;;;6161828;23;20047;-94
2021/03/26 09:36:06;;;;;;;;;;;;;;;;;;;;;
2021/03/26 09:38:33;;;;;;;12.57;8.30;;;;;;;;;;6187479;23;20069;-94
2021/03/26 09:41:10;;;;;;;17.88;8.88;;;;;;;;;;6158087;23;20016;-94
2021/03/26 09:43:42;;;;;;;21.35;9.50;;;;;;;;;;6158047;23;20005;-93
2021/03/26 09:46:30;;;;;;;13.18;8.40;;;;;;;;;;6157600;23;20017;-93
2021/03/26 09:48:56;;;;;;;11.85;8.38;;;;;;;;;;6156434;23;20493;-92
2021/03/26 09:51:35;;;;;;;13.13;7.53;;;;;;;;;;6157825;23;20009;-93
2021/03/26 09:54:22;;;;;;;14.93;8.63;;;;;;;;;;6156576;23;20005;-92
2021/03/26 09:57:11;;;;;;;15.25;8.73;;;;;;;;;;6156366;23;20040;-91
2021/03/26 09:59:41;;;;;;;17.13;9.43;;;;;;;;;;6158013;23;20756;-92
2021/03/26 10:02:11;;;;;;;11.98;9.10;;;;;;;;;;6156510;23;20009;-91
2021/03/26 10:04:47;;;;;;;11.55;7.05;;;;;;;;;;6156598;23;20020;-90
2021/03/26 10:07:29;;;;;;;13.95;8.43;;;;;;;;;;6184001;23;20084;-89
2021/03/26 10:12:49;;;;;;;11.60;8.50;;;;;;;;;;6182609;23;20020;-90
2021/03/26 10:15:22;;;;;;;13.50;8.40;;;;;;;;;;6156593;23;20025;-90
2021/03/26 10:18:13;;;;;;;20.85;9.05;;;;;;;;;;6156794;23;20015;-91
2021/03/26 10:20:51;;;;;;;12.73;8.50;;;;;;;;;;6144907;23;20009;-90
2021/03/26 10:23:29;;;;;;;10.95;8.18;;;;;;;;;;6157873;23;20013;-90
2021/03/26 10:25:55;;;;;;;8.88;6.93;;;;;;;;;;6156893;23;20112;-90
2021/03/26 10:28:49;;;;;;;10.40;8.25;;;;;;;;;;6158217;23;20080;-90
2021/03/26 10:31:15;;;;;;;10.20;7.57;;;;;;;;;;6158012;23;20450;-91
2021/03/26 10:33:45;;;;;;;10.63;7.68;;;;;;;;;;6184136;23;20005;-91
2021/03/26 10:36:17;;;;;;;13.32;7.40;;;;;;;;;;6158417;23;20013;-92
2021/03/26 10:38:47;;;;;;;12.00;7.85;;;;;;;;;;6155432;23;20016;-93
2021/03/26 10:41:23;;;;;;;12.55;8.13;;;;;;;;;;6156686;23;20008;-94
2021/03/26 10:44:03;;;;;;;10.93;8.38;;;;;;;;;;6131499;23;20024;-92
2021/03/26 10:46:36;;;;;;;12.55;7.50;;;;;;;;;;6158756;23;20036;-93
2021/03/26 10:49:15;;;;;;;16.25;8.18;;;;;;;;;;6158603;23;20088;-92
2021/03/26 10:51:53;;;;;;;13.98;8.40;;;;;;;;;;6157812;23;20084;-92
2021/03/26 10:54:30;;;;;;;15.68;8.75;;;;;;;;;;6161171;23;20009;-91
2021/03/26 10:57:15;;;;;;;17.42;9.00;;;;;;;;;;6157355;23;20077;-92
2021/03/26 10:59:47;;;;;;;13.32;8.60;;;;;;;;;;6159696;23;20036;-92
2021/03/26 11:02:33;;;;;;;13.85;8.50;;;;;;;;;;6158211;23;20009;-92
2021/03/26 11:05:07;;;;;;;19.35;9.27;;;;;;;;;;6158230;23;20083;-92
2021/03/26 11:07:37;;;;;;;14.98;9.18;;;;;;;;;;6159277;23;20020;-92
2021/03/26 11:10:04;;;;;;;15.32;9.27;;;;;;;;;;6107503;23;20033;-91
2021/03/26 11:12:37;;;;;;;14.50;7.60;;;;;;;;;;6105216;23;20018;-90
2021/03/26 11:15:10;;;;;;;15.90;8.60;;;;;;;;;;6128034;23;20116;-93
2021/03/26 11:17:55;;;;;;;13.68;8.75;;;;;;;;;;6128016;23;20093;-90
2021/03/26 11:20:26;;;;;;;21.00;8.68;;;;;;;;;;6127695;23;20101;-91
2021/03/26 11:23:13;;;;;;;28.77;9.57;;;;;;;;;;6127081;23;20018;-91
2021/03/26 11:25:45;;;;;;;22.73;9.52;;;;;;;;;;6129448;23;20431;-92
2021/03/26 11:28:24;;;;;;;18.77;11.00;;;;;;;;;;6128974;23;20033;-92
2021/03/26 11:31:10;;;;;;;16.50;10.07;;;;;;;;;;6128245;23;20009;-92
2021/03/26 11:33:47;;;;;;;14.90;10.35;;;;;;;;;;6129699;23;20009;-90
2021/03/26 11:36:23;;;;;;;17.67;9.35;;;;;;;;;;6130141;23;20013;-91
2021/03/26 11:39:01;;;;;;;18.13;10.40;;;;;;;;;;6128573;23;20096;-92
2021/03/26 11:41:34;;;;;;;19.77;8.93;;;;;;;;;;6130077;23;20010;-92
2021/03/26 11:44:02;;;;;;;16.15;10.73;;;;;;;;;;6128944;23;20010;-91
2021/03/26 11:46:36;;;;;;;19.25;10.70;;;;;;;;;;6129298;23;20009;-91
2021/03/26 11:49:05;;;;;;;21.55;10.88;;;;;;;;;;6128882;23;20017;-92
2021/03/26 11:51:32;;;;;;;21.75;11.77;;;;;;;;;;6155806;23;20010;-91
2021/03/26 11:54:18;;;;;;;20.88;11.82;;;;;;;;;;6128294;23;20399;-92
2021/03/26 11:56:47;;;;;;;22.83;12.32;;;;;;;;;;6127728;23;20017;-92
2021/03/26 11:59:33;;;;;;;20.98;11.93;;;;;;;;;;6126940;23;20439;-92
2021/03/26 12:02:10;;;;;;;22.88;12.20;;;;;;;;;;6125576;23;20088;-91
2021/03/26 12:05:13;;;;;;;20.17;11.25;;;;;;;;;;6128193;23;20020;-91
2021/03/26 12:07:43;;;;;;;23.25;12.40;;;;;;;;;;6034797;23;20026;-91
2021/03/26 12:10:22;;;;;;;14.70;11.05;;;;;;;;;;6059407;23;20027;-92
2021/03/26 12:12:53;;;;;;;24.23;11.40;;;;;;;;;;6035274;23;20164;-91
2021/03/26 12:15:24;;;;;;;18.70;10.95;;;;;;;;;;6036813;23;20054;-91
2021/03/26 12:18:09;;;;;;;23.63;12.27;;;;;;;;;;6035287;23;20413;-90
2021/03/26 12:20:38;;;;;;;17.35;11.32;;;;;;;;;;6035811;23;20011;-90
2021/03/26 12:23:08;;;;;;;19.05;10.68;;;;;;;;;;6035132;23;20016;-90
2021/03/26 12:25:42;;;;;;;17.85;10.52;;;;;;;;;;6035880;23;20011;-89
2021/03/26 12:28:33;;;;;;;21.50;10.90;;;;;;;;;;6036013;23;20164;-91
2021/03/26 12:31:11;;;;;;;23.65;12.07;;;;;;;;;;6035584;23;20007;-93
2021/03/26 12:33:38;;;;;;;19.30;10.10;;;;;;;;;;6036336;23;20012;-93
2021/03/26 12:36:16;;;;;;;21.98;11.25;;;;;;;;;;6137862;23;20010;-92
2021/03/26 12:38:42;;;;;;;14.23;9.73;;;;;;;;;;6128100;23;20021;-92
2021/03/26 12:41:32;;;;;;;14.77;9.98;;;;;;;;;;6164429;23;20017;-92
2021/03/26 12:44:10;;;;;;;16.88;10.02;;;;;;;;;;6151585;23;20017;-92
2021/03/26 12:46:55;;;;;;;16.10;10.95;;;;;;;;;;6126047;23;20020;-92
2021/03/26 12:49:41;;;;;;;18.88;10.80;;;;;;;;;;6130013;23;20013;-91
2021/03/26 12:52:35;;;;;;;17.58;10.32;;;;;;;;;;6128280;23;20016;-91
2021/03/26 12:55:21;;;;;;;19.50;10.32;;;;;;;;;;6069604;23;20134;-94
2021/03/26 12:58:07;;;;;;;16.33;10.45;;;;;;;;;;6128744;23;20092;-95
2021/03/26 13:00:37;;;;;;;16.63;9.93;;;;;;;;;;6130101;23;20082;-95
2021/03/26 13:03:23;;;;;;;12.27;9.00;;;;;;;;;;6153060;23;20443;-93
2021/03/26 13:06:20;;;;;;;12.48;8.43;;;;;;;;;;6153180;23;20009;-93
2021/03/26 13:08:49;;;;;;;14.15;9.23;;;;;;;;;;6134501;23;20096;-94
2021/03/26 13:11:16;;;;;;;12.93;8.30;;;;;;;;;;6163071;23;20005;-93
2021/03/26 13:14:11;;;;;;;13.45;8.48;;;;;;;;;;6161158;23;20041;-94
2021/03/26 13:16:38;;;;;;;13.90;8.40;;;;;;;;;;6162681;23;20426;-93
2021/03/26 13:19:07;;;;;;;10.43;7.32;;;;;;;;;;6161650;23;20009;-94
2021/03/26 13:21:33;;;;;;;13.20;7.43;;;;;;;;;;6168720;23;20068;-94
2021/03/26 13:24:20;;;;;;;9.98;7.22;;;;;;;;;;6170632;23;20012;-93
2021/03/26 13:26:48;;;;;;;11.25;7.40;;;;;;;;;;6172768;23;20013;-93
2021/03/26 13:29:27;;;;;;;9.50;6.90;;;;;;;;;;6175271;23;20030;-94
2021/03/26 13:31:56;;;;;;;10.15;7.35;;;;;;;;;;6176748;23;20016;-94
2021/03/26 13:34:29;;;;;;;10.73;7.75;;;;;;;;;;6177302;23;20005;-93
2021/03/26 13:37:02;;;;;;;9.85;6.60;;;;;;;;;;6174855;23;19997;-94
2021/03/26 13:39:38;;;;;;;8.07;6.65;;;;;;;;;;6202041;23;20023;-93
2021/03/26 13:42:25;;;;;;;9.50;7.03;;;;;;;;;;6174140;23;20029;-94
2021/03/26 13:44:59;;;;;;;8.77;6.57;;;;;;;;;;6176349;23;20020;-94
2021/03/26 13:47:32;;;;;;;13.38;6.38;;;;;;;;;;6176817;23;20016;-95
2021/03/26 13:50:09;;;;;;;10.45;6.93;;;;;;;;;;6174952;23;20005;-93
2021/03/26 13:52:39;;;;;;;9.52;6.63;;;;;;;;;;6151302;23;20009;-94
2021/03/26 13:55:29;;;;;;;10.43;7.00;;;;;;;;;;6172610;23;20374;-94
2021/03/26 13:58:05;;;;;;;9.00;6.70;;;;;;;;;;6179198;23;20015;-93
2021/03/26 14:00:33;;;;;;;10.90;6.30;;;;;;;;;;6166306;23;20040;-94
2021/03/26 14:03:01;;;;;;;9.95;6.40;;;;;;;;;;6162272;23;20009;-94
2021/03/26 14:05:41;;;;;;;12.85;6.95;;;;;;;;;;6165994;23;20024;-93
2021/03/26 14:08:12;;;;;;;9.05;6.47;;;;;;;;;;6170417;23;20089;-93
2021/03/26 14:10:44;;;;;;;13.63;7.50;;;;;;;;;;6167003;23;20418;-94
2021/03/26 14:13:16;;;;;;;8.98;6.35;;;;;;;;;;6180364;23;20009;-94
2021/03/26 14:15:43;;;;;;;10.20;6.10;;;;;;;;;;6169802;23;20012;-94
2021/03/26 14:18:10;;;;;;;8.88;6.10;;;;;;;;;;6170733;23;20009;-93
2021/03/26 14:20:36;;;;;;;9.40;6.18;;;;;;;;;;6171870;23;20097;-94
2021/03/26 14:23:05;;;;;;;18.38;7.90;;;;;;;;;;6170794;23;20013;-93
2021/03/26 14:25:53;;;;;;;10.02;6.68;;;;;;;;;;6170221;23;20075;-94
2021/03/26 14:28:19;;;;;;;;;;;;;;;;;;6172488;23;20013;-94
2021/03/26 14:30:54;;;;;;;;;;;;;;;;;;6162563;23;19955;-94
2021/03/26 14:33:20;;;;;;;;;;;;;;;;;;6174262;23;19995;-95
2021/03/26 14:35:49;;;;;;;;;;;;;;;;;;6170721;23;19915;-95
2021/03/26 14:38:15;;;;;;;;;;;;;;;;;;6173472;23;19915;-94
2021/03/26 14:40:42;;;;;;;;;;;;;;;;;;6174144;23;20442;-94
2021/03/26 14:43:29;;;;;;;;;;;;;;;;;;6186638;23;19905;-95
2021/03/26 14:48:51;;;;;;;;;;;;;;;;;;6205247;23;19920;-95
2021/03/26 14:54:26;;;;;;;;;;;;;;;;;;;;;
2021/03/26 14:56:57;;;;;;;;;;;;;;;;;;6197689;23;19904;-95
2021/03/26 14:59:27;;;;;;;;;;;;;;;;;;6173112;23;19912;-96
2021/03/26 15:01:55;;;;;;;;;;;;;;;;;;6167252;23;19915;-94
2021/03/26 15:04:21;;;;;;;;;;;;;;;;;;6164166;23;19932;-96
2021/03/26 15:15:22;;;;;;;;;;;;;;;;;;6189836;23;19911;-95
2021/03/26 15:17:48;;;;;;;;;;;;;;;;;;6162749;23;19908;-95
2021/03/26 15:20:23;;;;;;;;;;;;;;;;;;6126390;23;19905;-96
2021/03/26 15:22:55;;;;;;;;;;;;;;;;;;6132404;23;20286;-96
2021/03/26 15:25:22;;;;;;;;;;;;;;;;;;6132887;23;19908;-95
2021/03/26 15:27:48;;;;;;;;;;;;;;;;;;6127971;23;19908;-95
2021/03/26 15:30:17;;;;;;;;;;;;;;;;;;6128678;23;19984;-94
2021/03/26 15:32:47;;;;;;;;;;;;;;;;;;6129029;23;19904;-92
2021/03/26 15:38:07;;;;;;;;;;;;;;;;;;6152842;23;19914;-90
2021/03/26 15:40:33;;;;;;;;;;;;;;;;;;6126849;23;19905;-92
2021/03/26 15:43:01;;;;;;;;;;;;;;;;;;6126243;23;19911;-93
2021/03/26 15:45:28;;;;;;;;;;;;;;;;;;6128768;23;20410;-92
2021/03/26 15:47:57;;;;;;;;;;;;;;;;;;6132926;23;20327;-94
2021/03/26 15:50:26;;;;;;;;;;;;;;;;;;6135433;23;20047;-94
2021/03/26 15:52:55;;;;;;;;;;;;;;;;;;6154213;23;19912;-93
2021/03/26 15:55:25;;;;;;;;;;;;;;;;;;6161676;23;19911;-95
2021/03/26 15:57:52;;;;;;;;;;;;;;;;;;6175720;23;19896;-95
2021/03/26 16:00:21;;;;;;;;;;;;;;;;;;6158952;23;19915;-94
2021/03/26 16:02:47;;;;;;;;;;;;;;;;;;6156520;23;19947;-95
2021/03/26 16:05:17;;;;;;;;;;;;;;;;;;6154598;23;19955;-95
2021/03/26 16:07:43;;;;;;;;;;;;;;;;;;6156983;23;19963;-96
2021/03/26 16:10:12;;;;;;;;;;;;;;;;;;6158734;23;19920;-96
2021/03/26 16:12:39;;;;;;;;;;;;;;;;;;6158284;23;19962;-95
2021/03/26 16:18:00;;;;;;;;;;;;;;;;;;6182139;23;19992;-94
2021/03/26 16:20:28;;;;;;;;;;;;;;;;;;6158175;23;19908;-93
2021/03/26 16:23:12;;;;;;;;;;;;;;;;;;6156134;23;19904;-95
2021/03/26 16:25:38;;;;;;;;;;;;;;;;;;6156506;23;20326;-94
2021/03/26 16:28:17;;;;;;;;;;;;;;;;;;6155590;23;20001;-94
2021/03/26 16:30:51;;;;;;;;;;;;;;;;;;6155028;23;19970;-93
2021/03/26 16:33:41;;;;;;;;;;;;;;;;;;6178163;23;19912;-95
2021/03/26 16:36:13;;;;;;;;;;;;;;;;;;6156148;23;19915;-94
2021/03/26 16:38:40;;;;;;;;;;;;;;;;;;6171145;23;19892;-94
2021/03/26 16:41:07;;;;;;;;;;;;;;;;;;6156110;23;19908;-94
2021/03/26 16:43:38;;;;;;;;;;;;;;;;;;6153721;23;19908;-96
2021/03/26 16:46:13;;;;;;;;;;;;;;;;;;6152453;23;19986;-95
2021/03/26 16:48:41;;;;;;;;;;;;;;;;;;6157230;23;19908;-96
2021/03/26 16:51:08;;;;;;;;;;;;;;;;;;6156935;23;19908;-94
2021/03/26 16:56:32;;;;;;;;;;;;;;;;;;6182267;23;19919;-95
2021/03/26 16:59:02;;;;;;;;;;;;;;;;;;6154871;23;19912;-96
2021/03/26 17:01:32;;;;;;;;;;;;;;;;;;6155583;23;20339;-95
2021/03/26 17:03:59;;;;;;;;;;;;;;;;;;6153465;23;19958;-95
2021/03/26 17:06:26;;;;;;;;;;;;;;;;;;6155161;23;19908;-94
2021/03/26 17:08:58;;;;;;;;;;;;;;;;;;6156984;23;19947;-95
2021/03/26 17:11:24;;;;;;;;;;;;;;;;;;6157541;23;19904;-95
2021/03/26 17:13:54;;;;;;;;;;;;;;;;;;6155780;23;19908;-94
2021/03/26 17:16:20;;;;;;;;;;;;;;;;;;6155449;23;20332;-95
2021/03/26 17:18:51;;;;;;;;;;;;;;;;;;6154556;23;19908;-94
2021/03/26 17:21:19;;;;;;;;;;;;;;;;;;6157155;23;20350;-95
2021/03/26 17:23:45;;;;;;;;;;;;;;;;;;6153115;23;20292;-94
2021/03/26 17:26:17;;;;;;;;;;;;;;;;;;6180527;23;19973;-91
2021/03/26 17:28:43;;;;;;;;;;;;;;;;;;6157519;23;20318;-93
2021/03/26 17:31:09;;;;;;;;;;;;;;;;;;6162776;23;19904;-91
2021/03/26 17:33:35;;;;;;;;;;;;;;;;;;6166705;23;19908;-92
2021/03/26 17:36:03;;;;;;;;;;;;;;;;;;6170594;23;19985;-91
2021/03/26 17:38:35;;;;;;;;;;;;;;;;;;6181385;23;19904;-93
2021/03/26 17:41:08;;;;;;;;;;;;;;;;;;6210146;23;19928;-93
2021/03/26 17:43:41;;;;;;;;;;;;;;;;;;6212064;23;19936;-90
